createdAt,value
2023-04-18T00:01:09.786Z,3.45
2023-04-18T00:03:38.961Z,3.80
2023-04-18T00:06:05.944Z,4.20
2023-04-18T00:08:33.841Z,3.72
2023-04-18T00:11:00.540Z,3.90
2023-04-18T00:13:28.468Z,3.67
2023-04-18T00:15:55.177Z,4.00
2023-04-18T00:18:22.112Z,4.03
2023-04-18T00:20:48.635Z,3.75
2023-04-18T00:23:16.382Z,3.47
2023-04-18T00:25:42.877Z,4.85
2023-04-18T00:28:09.910Z,3.95
2023-04-18T00:30:36.491Z,3.55
2023-04-18T00:33:04.311Z,3.72
2023-04-18T00:35:31.958Z,3.58
2023-04-18T00:37:59.129Z,3.75
2023-04-18T00:40:25.765Z,3.50
2023-04-18T00:42:52.292Z,3.75
2023-04-18T00:45:18.887Z,3.63
2023-04-18T00:47:45.452Z,3.85
2023-04-18T00:50:12.831Z,3.33
2023-04-18T00:52:39.516Z,3.60
2023-04-18T00:55:08.076Z,3.78
2023-04-18T00:57:34.983Z,3.60
2023-04-18T01:00:02.420Z,3.90
2023-04-18T01:02:31.294Z,3.60
2023-04-18T01:05:03.102Z,3.47
2023-04-18T01:07:31.830Z,3.90
2023-04-18T01:09:58.771Z,3.67
2023-04-18T01:12:25.384Z,4.00
2023-04-18T01:14:51.833Z,3.72
2023-04-18T01:17:19.365Z,3.90
2023-04-18T01:19:48.439Z,3.58
2023-04-18T01:22:20.419Z,3.95
2023-04-18T01:24:46.970Z,3.65
2023-04-18T01:27:14.318Z,3.65
2023-04-18T01:29:41.041Z,3.42
2023-04-18T01:32:08.031Z,3.33
2023-04-18T01:34:34.586Z,3.83
2023-04-18T01:37:01.217Z,3.55
2023-04-18T01:39:28.525Z,3.95
2023-04-18T01:41:55.182Z,3.72
2023-04-18T01:44:21.697Z,3.80
2023-04-18T01:46:48.235Z,3.58
2023-04-18T01:49:15.051Z,4.03
2023-04-18T01:51:43.111Z,3.08
2023-04-18T01:54:09.774Z,3.58
2023-04-18T01:56:36.469Z,3.42
2023-04-18T01:59:03.569Z,3.92
2023-04-18T02:01:30.111Z,3.28
2023-04-18T02:03:56.742Z,3.35
2023-04-18T02:06:23.433Z,3.85
2023-04-18T02:08:49.922Z,3.50
2023-04-18T02:11:16.439Z,3.83
2023-04-18T02:13:42.998Z,3.40
2023-04-18T02:16:13.688Z,3.25
2023-04-18T02:18:43.422Z,3.58
2023-04-18T02:21:11.228Z,3.33
2023-04-18T02:23:37.915Z,3.75
2023-04-18T02:26:04.491Z,3.10
2023-04-18T02:28:31.059Z,3.33
2023-04-18T02:31:00.324Z,3.33
2023-04-18T02:33:26.813Z,3.58
2023-04-18T02:35:53.324Z,3.40
2023-04-18T02:38:19.838Z,3.60
2023-04-18T02:40:46.381Z,3.50
2023-04-18T02:43:13.280Z,3.28
2023-04-18T02:45:39.793Z,3.17
2023-04-18T02:48:08.898Z,3.33
2023-04-18T02:50:35.539Z,3.22
2023-04-18T02:53:02.417Z,2.90
2023-04-18T02:55:28.994Z,3.25
2023-04-18T02:57:55.991Z,6.32
2023-04-18T03:00:22.614Z,3.40
2023-04-18T03:02:49.393Z,4.10
2023-04-18T03:05:16.603Z,3.22
2023-04-18T03:07:43.056Z,3.85
2023-04-18T03:10:10.292Z,6.15
2023-04-18T03:12:36.911Z,3.58
2023-04-18T03:15:03.653Z,4.60
2023-04-18T03:17:30.393Z,3.42
2023-04-18T03:19:56.967Z,3.45
2023-04-18T03:22:23.528Z,3.30
2023-04-18T03:24:50.095Z,3.90
2023-04-18T03:27:16.693Z,3.58
2023-04-18T03:29:43.351Z,3.25
2023-04-18T03:32:09.865Z,3.30
2023-04-18T03:34:36.441Z,3.22
2023-04-18T03:37:02.975Z,4.05
2023-04-18T03:39:29.532Z,3.10
2023-04-18T03:41:56.174Z,3.38
2023-04-18T03:44:22.720Z,2.95
2023-04-18T03:46:49.385Z,3.15
2023-04-18T03:49:16.118Z,3.45
2023-04-18T03:51:49.535Z,3.28
2023-04-18T03:54:17.147Z,3.08
2023-04-18T03:56:44.350Z,3.33
2023-04-18T03:59:12.231Z,3.13
2023-04-18T04:01:38.850Z,3.38
2023-04-18T04:04:05.960Z,3.28
2023-04-18T04:06:32.564Z,3.22
2023-04-18T04:08:59.148Z,3.25
2023-04-18T04:11:26.041Z,3.20
2023-04-18T04:13:52.975Z,3.58
2023-04-18T04:16:19.616Z,3.42
2023-04-18T04:18:46.282Z,2.78
2023-04-18T04:21:12.784Z,3.42
2023-04-18T04:23:41.992Z,3.35
2023-04-18T04:26:08.628Z,3.20
2023-04-18T04:28:36.103Z,3.45
2023-04-18T04:31:03.485Z,3.15
2023-04-18T04:33:29.953Z,2.83
2023-04-18T04:35:56.743Z,3.15
2023-04-18T04:38:23.295Z,3.08
2023-04-18T04:40:49.957Z,3.30
2023-04-18T04:43:17.036Z,3.33
2023-04-18T04:45:45.668Z,3.47
2023-04-18T04:48:12.195Z,3.28
2023-04-18T04:50:41.799Z,3.38
2023-04-18T04:53:08.891Z,3.97
2023-04-18T04:55:35.534Z,3.58
2023-04-18T04:58:02.274Z,3.10
2023-04-18T05:00:28.880Z,3.05
2023-04-18T05:02:57.525Z,3.45
2023-04-18T05:05:24.229Z,2.92
2023-04-18T05:07:50.832Z,4.22
2023-04-18T05:10:17.433Z,3.25
2023-04-18T05:12:44.257Z,3.40
2023-04-18T05:15:11.085Z,3.25
2023-04-18T05:17:37.644Z,3.10
2023-04-18T05:20:05.311Z,2.83
2023-04-18T05:22:32.481Z,3.35
2023-04-18T05:24:59.035Z,3.42
2023-04-18T05:27:28.074Z,3.42
2023-04-18T05:29:54.699Z,3.35
2023-04-18T05:32:21.574Z,3.75
2023-04-18T05:34:48.599Z,3.50
2023-04-18T05:37:15.345Z,3.60
2023-04-18T05:39:42.053Z,3.58
2023-04-18T05:42:08.658Z,3.08
2023-04-18T05:44:35.748Z,3.17
2023-04-18T05:47:02.366Z,3.22
2023-04-18T05:49:29.236Z,3.50
2023-04-18T05:51:56.570Z,3.38
2023-04-18T05:54:25.143Z,3.42
2023-04-18T05:56:51.787Z,3.40
2023-04-18T05:59:18.392Z,3.15
2023-04-18T06:01:44.972Z,3.30
2023-04-18T06:04:11.914Z,3.03
2023-04-18T06:06:38.854Z,3.33
2023-04-18T06:09:05.502Z,3.88
2023-04-18T06:11:35.736Z,3.40
2023-04-18T06:14:03.307Z,4.10
2023-04-18T06:16:29.939Z,3.63
2023-04-18T06:18:59.666Z,4.32
2023-04-18T06:21:27.913Z,3.25
2023-04-18T06:23:56.086Z,3.60
2023-04-18T06:26:22.839Z,3.55
2023-04-18T06:28:49.324Z,3.63
2023-04-18T06:31:16.453Z,3.47
2023-04-18T06:33:42.967Z,3.10
2023-04-18T06:36:09.868Z,3.15
2023-04-18T06:38:36.412Z,4.85
2023-04-18T06:41:02.983Z,3.28
2023-04-18T06:43:29.512Z,3.50
2023-04-18T06:45:56.714Z,3.50
2023-04-18T06:48:23.424Z,3.53
2023-04-18T06:50:50.158Z,3.33
2023-04-18T06:53:16.666Z,3.50
2023-04-18T06:55:43.354Z,3.38
2023-04-18T06:58:10.175Z,5.85
2023-04-18T07:00:36.794Z,3.75
2023-04-18T07:03:11.381Z,3.25
2023-04-18T07:05:40.992Z,3.67
2023-04-18T07:08:08.193Z,3.47
2023-04-18T07:10:34.957Z,3.65
2023-04-18T07:13:01.705Z,3.50
2023-04-18T07:15:28.517Z,3.42
2023-04-18T07:17:55.176Z,3.10
2023-04-18T07:20:22.026Z,3.33
2023-04-18T07:22:51.211Z,3.33
2023-04-18T07:25:17.902Z,3.78
2023-04-18T07:27:46.740Z,3.40
2023-04-18T07:30:13.725Z,3.70
2023-04-18T07:32:40.293Z,3.28
2023-04-18T07:35:07.671Z,3.03
2023-04-18T07:37:34.320Z,3.40
2023-04-18T07:40:03.148Z,3.38
2023-04-18T07:42:29.777Z,3.47
2023-04-18T07:45:01.389Z,3.17
2023-04-18T07:47:30.180Z,3.28
2023-04-18T07:49:57.604Z,4.82
2023-04-18T07:52:24.505Z,3.17
2023-04-18T07:54:51.327Z,3.30
2023-04-18T07:57:17.948Z,3.33
2023-04-18T07:59:44.541Z,3.30
2023-04-18T08:02:11.098Z,3.13
2023-04-18T08:04:37.885Z,3.20
2023-04-18T08:07:04.533Z,3.40
2023-04-18T08:09:34.421Z,3.40
2023-04-18T08:12:01.017Z,3.50
2023-04-18T08:14:27.567Z,3.78
2023-04-18T08:16:54.211Z,2.88
2023-04-18T08:19:20.902Z,3.08
2023-04-18T08:21:51.183Z,4.13
2023-04-18T08:24:17.917Z,3.40
2023-04-18T08:26:44.651Z,3.15
2023-04-18T08:29:11.715Z,2.90
2023-04-18T08:31:39.615Z,3.03
2023-04-18T08:34:06.244Z,3.53
2023-04-18T08:36:34.862Z,3.28
2023-04-18T08:39:01.883Z,7.80
2023-04-18T08:41:30.805Z,11.05
2023-04-18T08:43:57.522Z,10.88
2023-04-18T08:46:24.108Z,10.65
2023-04-18T08:48:51.453Z,6.82
2023-04-18T08:51:18.048Z,10.15
2023-04-18T08:53:45.111Z,11.95
2023-04-18T08:56:14.708Z,10.73
2023-04-18T08:58:41.340Z,11.00
2023-04-18T09:01:08.983Z,9.65
2023-04-18T09:03:41.272Z,9.95
2023-04-18T09:06:14.446Z,17.95
2023-04-18T09:08:43.623Z,23.38
2023-04-18T09:11:24.002Z,23.33
2023-04-18T09:13:50.586Z,22.05
2023-04-18T09:16:20.728Z,25.33
2023-04-18T09:19:13.861Z,23.23
2023-04-18T09:21:44.333Z,17.88
2023-04-18T09:24:23.769Z,16.35
2023-04-18T09:26:53.726Z,16.50
2023-04-18T09:29:23.834Z,13.23
2023-04-18T09:32:08.333Z,14.82
2023-04-18T09:34:38.309Z,16.25
2023-04-18T09:37:07.711Z,10.25
2023-04-18T09:39:34.602Z,12.88
2023-04-18T09:42:02.564Z,8.63
2023-04-18T09:44:29.341Z,7.15
2023-04-18T09:46:56.097Z,8.55
2023-04-18T09:49:23.559Z,10.48
2023-04-18T09:51:54.848Z,7.82
2023-04-18T09:54:24.394Z,8.48
2023-04-18T09:56:53.492Z,6.47
2023-04-18T09:59:47.805Z,6.93
2023-04-18T10:02:23.112Z,7.03
2023-04-18T10:04:51.842Z,6.82
2023-04-18T10:07:18.922Z,6.68
2023-04-18T10:09:49.440Z,5.13
2023-04-18T10:14:44.309Z,6.43
2023-04-18T10:17:11.808Z,5.43
2023-04-18T10:19:42.106Z,4.03
2023-04-18T10:22:08.734Z,4.70
2023-04-18T10:24:56.034Z,5.20
2023-04-18T10:27:58.000Z,3.75
2023-04-18T10:31:03.665Z,5.60
2023-04-18T10:33:42.813Z,4.82
2023-04-18T10:36:09.573Z,5.55
2023-04-18T10:38:38.857Z,4.25
2023-04-18T10:41:24.105Z,3.97
2023-04-18T10:44:09.611Z,3.83
2023-04-18T10:46:41.599Z,3.70
2023-04-18T10:49:26.849Z,4.35
2023-04-18T10:52:00.852Z,3.08
2023-04-18T10:54:58.432Z,3.00
2023-04-18T10:57:26.474Z,4.45
2023-04-18T10:59:54.787Z,4.20
2023-04-18T11:02:25.854Z,5.13
2023-04-18T11:05:01.650Z,3.47
2023-04-18T11:07:44.812Z,4.00
2023-04-18T11:10:12.064Z,3.05
2023-04-18T11:12:40.753Z,3.70
2023-04-18T11:15:17.634Z,3.45
2023-04-18T11:17:44.494Z,3.50
2023-04-18T11:20:14.203Z,2.92
2023-04-18T11:22:49.028Z,2.60
2023-04-18T11:25:17.033Z,3.05
2023-04-18T11:27:45.910Z,2.50
2023-04-18T11:30:14.346Z,2.70
2023-04-18T11:32:41.583Z,3.15
2023-04-18T11:35:09.927Z,2.42
2023-04-18T11:37:38.261Z,2.35
2023-04-18T11:40:08.588Z,2.58
2023-04-18T11:42:37.307Z,3.13
2023-04-18T11:45:04.460Z,2.80
2023-04-18T11:47:33.999Z,4.30
2023-04-18T11:50:01.440Z,2.90
2023-04-18T11:52:29.540Z,2.78
2023-04-18T11:54:57.245Z,2.80
2023-04-18T11:57:29.092Z,2.22
2023-04-18T11:59:57.842Z,2.50
2023-04-18T12:02:27.250Z,2.78
2023-04-18T12:04:57.052Z,3.05
2023-04-18T12:07:39.999Z,3.28
2023-04-18T12:10:09.559Z,2.20
2023-04-18T12:12:36.790Z,2.13
2023-04-18T12:15:04.796Z,2.33
2023-04-18T12:17:31.778Z,3.80
2023-04-18T12:20:03.698Z,2.13
2023-04-18T12:22:49.640Z,2.40
2023-04-18T12:25:23.516Z,2.63
2023-04-18T12:28:00.414Z,2.50
2023-04-18T12:30:31.276Z,2.35
2023-04-18T12:33:02.495Z,3.30
2023-04-18T12:35:30.751Z,2.20
2023-04-18T12:37:59.568Z,3.13
2023-04-18T12:40:27.256Z,2.90
2023-04-18T12:42:55.343Z,2.33
2023-04-18T12:45:23.096Z,1.90
2023-04-18T12:47:51.475Z,2.63
2023-04-18T12:50:20.716Z,2.15
2023-04-18T12:52:47.688Z,2.38
2023-04-18T12:55:15.079Z,2.50
2023-04-18T12:57:43.060Z,2.83
2023-04-18T13:00:11.439Z,2.00
2023-04-18T13:02:39.481Z,2.15
2023-04-18T13:05:10.388Z,5.43
2023-04-18T13:07:42.397Z,2.45
2023-04-18T13:10:14.175Z,1.60
2023-04-18T13:12:41.484Z,1.80
2023-04-18T13:15:11.619Z,2.05
2023-04-18T13:17:39.836Z,1.73
2023-04-18T13:20:12.639Z,1.73
2023-04-18T13:22:43.188Z,1.75
2023-04-18T13:27:41.884Z,1.77
2023-04-18T13:30:11.012Z,1.60
2023-04-18T13:32:39.156Z,1.85
2023-04-18T13:35:08.297Z,1.67
2023-04-18T13:37:34.902Z,1.70
2023-04-18T13:40:01.554Z,1.30
2023-04-18T13:42:28.110Z,1.63
2023-04-18T13:44:54.624Z,3.13
2023-04-18T13:47:24.138Z,2.20
2023-04-18T13:49:50.735Z,2.17
2023-04-18T13:52:17.670Z,1.70
2023-04-18T13:54:44.285Z,1.75
2023-04-18T13:57:14.709Z,2.60
2023-04-18T14:02:09.048Z,2.35
2023-04-18T14:04:36.354Z,2.35
2023-04-18T14:07:06.280Z,1.88
2023-04-18T14:09:33.564Z,1.67
2023-04-18T14:12:00.183Z,1.70
2023-04-18T14:14:26.695Z,2.90
2023-04-18T14:16:53.946Z,3.42
2023-04-18T14:19:20.712Z,2.85
2023-04-18T14:21:48.227Z,1.65
2023-04-18T14:24:14.755Z,1.80
2023-04-18T14:26:41.548Z,2.97
2023-04-18T14:29:08.120Z,1.75
2023-04-18T14:31:34.842Z,1.17
2023-04-18T14:34:02.843Z,3.50
2023-04-18T14:36:29.656Z,2.72
2023-04-18T14:38:56.177Z,3.28
2023-04-18T14:41:23.036Z,2.17
2023-04-18T14:43:49.738Z,1.92
2023-04-18T14:46:16.721Z,2.45
2023-04-18T14:48:47.217Z,1.90
2023-04-18T14:51:16.164Z,2.60
2023-04-18T14:53:43.039Z,3.05
2023-04-18T14:56:09.745Z,2.28
2023-04-18T14:58:36.345Z,3.55
2023-04-18T15:01:04.227Z,3.88
2023-04-18T15:03:31.087Z,5.07
2023-04-18T15:05:57.776Z,7.28
2023-04-18T15:08:24.314Z,7.10
2023-04-18T15:10:50.910Z,11.10
2023-04-18T15:13:17.666Z,14.75
2023-04-18T15:15:55.851Z,11.80
2023-04-18T15:18:22.503Z,13.50
2023-04-18T15:20:49.135Z,13.95
2023-04-18T15:23:15.924Z,10.85
2023-04-18T15:25:45.158Z,12.15
2023-04-18T15:28:15.075Z,12.40
2023-04-18T15:30:41.888Z,9.82
2023-04-18T15:33:08.675Z,11.38
2023-04-18T15:35:35.825Z,10.55
2023-04-18T15:38:02.491Z,9.73
2023-04-18T15:40:29.034Z,11.32
2023-04-18T15:42:57.702Z,10.63
2023-04-18T15:45:24.282Z,10.82
2023-04-18T15:47:51.573Z,11.13
2023-04-18T15:50:18.311Z,8.52
2023-04-18T15:52:44.953Z,9.35
2023-04-18T15:55:13.228Z,8.75
2023-04-18T15:57:40.710Z,8.05
2023-04-18T16:00:15.988Z,11.05
2023-04-18T16:02:44.305Z,7.75
2023-04-18T16:05:14.295Z,7.97
2023-04-18T16:07:42.098Z,8.05
2023-04-18T16:10:10.494Z,6.82
2023-04-18T16:12:38.285Z,6.20
2023-04-18T16:15:09.291Z,8.02
2023-04-18T16:17:37.077Z,6.55
2023-04-18T16:20:05.979Z,5.05
2023-04-18T16:22:32.578Z,5.03
2023-04-18T16:24:59.100Z,6.70
2023-04-18T16:27:25.702Z,5.70
2023-04-18T16:29:53.784Z,5.45
2023-04-18T16:32:20.936Z,6.30
2023-04-18T16:34:48.132Z,5.47
2023-04-18T16:37:14.903Z,5.03
2023-04-18T16:39:41.496Z,5.18
2023-04-18T16:42:08.198Z,5.22
2023-04-18T16:44:34.845Z,5.15
2023-04-18T16:47:01.522Z,5.05
2023-04-18T16:49:28.258Z,4.47
2023-04-18T16:51:54.785Z,6.82
2023-04-18T16:54:21.374Z,5.85
2023-04-18T16:56:48.335Z,3.75
2023-04-18T16:59:14.865Z,6.13
2023-04-18T17:01:41.443Z,5.88
2023-04-18T17:04:08.005Z,5.38
2023-04-18T17:06:34.628Z,4.20
2023-04-18T17:09:01.297Z,3.50
2023-04-18T17:11:27.966Z,4.68
2023-04-18T17:13:54.521Z,4.03
2023-04-18T17:16:21.277Z,3.42
2023-04-18T17:18:47.862Z,4.95
2023-04-18T17:21:14.520Z,2.97
2023-04-18T17:23:42.567Z,3.80
2023-04-18T17:26:09.718Z,5.78
2023-04-18T17:28:36.532Z,2.65
2023-04-18T17:31:03.766Z,2.63
2023-04-18T17:33:31.002Z,4.60
2023-04-18T17:35:58.505Z,3.92
2023-04-18T17:38:25.268Z,3.55
2023-04-18T17:41:02.772Z,4.25
2023-04-18T17:43:29.513Z,2.60
2023-04-18T17:45:59.416Z,3.67
2023-04-18T17:48:26.275Z,3.70
2023-04-18T17:50:55.739Z,4.80
2023-04-18T17:53:22.376Z,3.08
2023-04-18T17:55:52.336Z,3.03
2023-04-18T17:58:19.817Z,3.83
2023-04-18T18:00:46.608Z,3.45
2023-04-18T18:03:14.967Z,3.20
2023-04-18T18:05:44.685Z,3.63
2023-04-18T18:08:14.612Z,2.87
2023-04-18T18:10:41.433Z,3.00
2023-04-18T18:13:08.403Z,4.90
2023-04-18T18:15:35.233Z,3.05
2023-04-18T18:18:02.280Z,3.30
2023-04-18T18:20:29.364Z,3.35
2023-04-18T18:22:57.388Z,3.83
2023-04-18T18:25:24.089Z,3.97
2023-04-18T18:27:51.459Z,3.72
2023-04-18T18:30:18.973Z,3.22
2023-04-18T18:32:45.724Z,3.58
2023-04-18T18:35:12.913Z,3.22
2023-04-18T18:37:39.453Z,3.28
2023-04-18T18:40:06.855Z,3.72
2023-04-18T18:42:33.412Z,3.42
2023-04-18T18:45:01.553Z,3.72
2023-04-18T18:47:28.684Z,3.50
2023-04-18T18:49:55.463Z,3.55
2023-04-18T18:52:24.223Z,3.20
2023-04-18T18:54:50.841Z,3.17
2023-04-18T18:57:17.451Z,3.58
2023-04-18T18:59:43.990Z,3.33
2023-04-18T19:02:10.706Z,2.95
2023-04-18T19:04:37.848Z,3.40
2023-04-18T19:07:05.874Z,3.75
2023-04-18T19:09:36.874Z,3.70
2023-04-18T19:12:05.890Z,3.35
2023-04-18T19:14:32.819Z,3.03
2023-04-18T19:16:59.409Z,3.30
2023-04-18T19:19:29.067Z,4.00
2023-04-18T19:21:55.597Z,3.57
2023-04-18T19:24:22.237Z,3.25
2023-04-18T19:26:48.821Z,3.20
2023-04-18T19:29:15.685Z,2.90
2023-04-18T19:31:43.837Z,3.92
2023-04-18T19:34:11.965Z,3.40
2023-04-18T19:36:38.891Z,3.47
2023-04-18T19:39:05.730Z,3.75
2023-04-18T19:41:32.307Z,3.60
2023-04-18T19:43:58.914Z,4.43
2023-04-18T19:46:26.230Z,3.10
2023-04-18T19:48:52.894Z,3.17
2023-04-18T19:51:19.489Z,3.50
2023-04-18T19:53:46.019Z,3.95
2023-04-18T19:56:14.273Z,3.13
2023-04-18T19:58:46.523Z,3.28
2023-04-18T20:01:14.470Z,3.20
2023-04-18T20:03:41.470Z,3.70
2023-04-18T20:06:08.986Z,4.78
2023-04-18T20:08:36.960Z,3.47
2023-04-18T20:11:11.059Z,3.63
2023-04-18T20:13:38.048Z,2.83
2023-04-18T20:16:05.618Z,3.28
2023-04-18T20:18:33.981Z,4.65
2023-04-18T20:21:00.514Z,3.15
2023-04-18T20:23:27.141Z,3.97
2023-04-18T20:25:53.710Z,3.22
2023-04-18T20:28:20.395Z,4.43
2023-04-18T20:30:48.044Z,3.55
2023-04-18T20:33:14.707Z,3.85
2023-04-18T20:35:41.550Z,4.18
2023-04-18T20:38:09.875Z,3.55
2023-04-18T20:40:41.553Z,2.72
2023-04-18T20:43:08.578Z,4.57
2023-04-18T20:45:37.590Z,3.85
2023-04-18T20:48:04.804Z,4.05
2023-04-18T20:50:32.731Z,4.38
2023-04-18T20:53:03.966Z,3.58
2023-04-18T20:55:31.000Z,3.75
2023-04-18T20:57:58.612Z,3.60
2023-04-18T21:00:25.422Z,3.30
2023-04-18T21:02:52.375Z,3.65
2023-04-18T21:05:19.027Z,3.30
2023-04-18T21:07:45.960Z,3.78
2023-04-18T21:10:12.641Z,3.53
2023-04-18T21:12:39.189Z,3.70
2023-04-18T21:15:06.336Z,4.35
2023-04-18T21:17:32.863Z,3.33
2023-04-18T21:19:59.523Z,3.28
2023-04-18T21:22:26.245Z,3.40
2023-04-18T21:24:52.750Z,2.83
2023-04-18T21:27:19.253Z,3.28
2023-04-18T21:29:45.893Z,3.28
2023-04-18T21:32:12.383Z,3.35
2023-04-18T21:34:38.904Z,3.28
2023-04-18T21:37:05.422Z,3.50
2023-04-18T21:39:31.996Z,3.00
2023-04-18T21:41:58.520Z,3.10
2023-04-18T21:44:25.184Z,3.75
2023-04-18T21:46:51.728Z,3.00
2023-04-18T21:49:18.490Z,3.40
2023-04-18T21:51:45.405Z,3.03
2023-04-18T21:54:12.185Z,2.80
2023-04-18T21:56:38.881Z,3.20
2023-04-18T21:59:05.653Z,2.78
2023-04-18T22:01:34.392Z,3.33
2023-04-18T22:04:01.978Z,3.08
2023-04-18T22:06:29.372Z,3.20
2023-04-18T22:08:56.079Z,2.90
2023-04-18T22:11:23.712Z,2.70
2023-04-18T22:13:54.128Z,2.80
2023-04-18T22:16:24.726Z,2.78
2023-04-18T22:18:51.631Z,3.20
2023-04-18T22:21:18.175Z,3.15
2023-04-18T22:23:45.675Z,2.78
2023-04-18T22:26:12.268Z,2.60
2023-04-18T22:28:38.882Z,2.97
2023-04-18T22:31:05.675Z,2.75
2023-04-18T22:33:32.608Z,2.75
2023-04-18T22:35:59.224Z,2.75
2023-04-18T22:38:25.894Z,2.67
2023-04-18T22:40:52.506Z,2.80
2023-04-18T22:43:23.719Z,2.47
2023-04-18T22:45:51.006Z,2.80
2023-04-18T22:48:17.639Z,3.47
2023-04-18T22:50:44.238Z,2.63
2023-04-18T22:53:11.247Z,3.28
2023-04-18T22:55:41.354Z,2.55
2023-04-18T22:58:08.215Z,2.50
2023-04-18T23:00:34.877Z,2.60
2023-04-18T23:03:01.928Z,2.45
2023-04-18T23:05:29.130Z,2.30
2023-04-18T23:07:57.322Z,3.63
2023-04-18T23:10:25.913Z,2.55
2023-04-18T23:12:52.555Z,3.25
2023-04-18T23:15:19.228Z,2.50
2023-04-18T23:17:45.759Z,2.80
2023-04-18T23:20:13.813Z,2.47
2023-04-18T23:22:40.645Z,2.67
2023-04-18T23:25:07.473Z,2.00
2023-04-18T23:27:34.151Z,2.60
2023-04-18T23:30:00.637Z,2.55
2023-04-18T23:32:27.156Z,2.55
2023-04-18T23:34:53.757Z,2.75
2023-04-18T23:37:20.899Z,2.15
2023-04-18T23:39:47.520Z,2.63
2023-04-18T23:42:14.088Z,4.60
2023-04-18T23:44:40.573Z,2.20
2023-04-18T23:47:07.235Z,2.10
2023-04-18T23:49:33.835Z,2.20
2023-04-18T23:52:00.488Z,2.33
2023-04-18T23:54:28.987Z,2.40
2023-04-18T23:56:55.543Z,2.42
2023-04-18T23:59:22.059Z,2.70
